Detalii statie TRANSAVIA GRUP [00001CF7]

Toti senzorii

Date Temperatura solului [C]Precipitatii [mm]Voltaj baterie [mV]HC Air temperature [C]HC Relative humidity [%]Punctul de roua [C]
medieminmaxsumaultimamedieminmaxmediemediemin
2019-06-15 18:00:00 24.8 24.7 25 0 7166 27.41 26.51 28.74 48.85 15.5 14.9
2019-06-15 19:00:00 24.7 24.6 24.8 0 7040 27.38 26.6 28.58 47.78 15.1 14.5
2019-06-15 20:00:00 24.6 24.5 24.8 0 6922 24.65 23.05 26.19 59.77 16 14.6
2019-06-15 21:00:00 24.4 24.3 24.7 0 6914 22.61 21.28 23.42 73.32 17.3 16.9
2019-06-15 22:00:00 24.1 23.9 24.3 0 6904 21.23 20.39 22.36 80.78 17.6 17
2019-06-15 23:00:00 23.9 23.7 24.2 0 6894 18.86 18.2 19.74 99.28 18.6 18.2
2019-06-16 00:00:00 23.6 23.4 23.8 0 6884 17.51 17.18 18.01 100 17.4 17.1
2019-06-16 01:00:00 23.3 23.2 23.5 0 6864 16.66 16.11 16.96 100 16.6 16.1
2019-06-16 02:00:00 23 22.9 23.4 0 6854 15.88 15.45 16.16 100 15.8 15.4
2019-06-16 03:00:00 22.7 22.5 22.9 0 6854 15.43 14.86 16.07 100 15.3 14.8
2019-06-16 04:00:00 22.4 22.3 22.6 0 6844 14.7 14.42 15.03 100 14.6 14.4
2019-06-16 05:00:00 22.2 22.1 22.4 0 6834 14.51 14.31 14.97 100 14.4 14.3
2019-06-16 06:00:00 21.9 21.7 22.1 0 6864 15.43 14.59 16.2 100 15.3 14.5
2019-06-16 07:00:00 21.6 21.6 21.9 0 6932 18.63 16.52 20.54 98.72 18.3 16.5
2019-06-16 08:00:00 21.5 21.4 21.6 0 7050 22.11 20.72 23.96 84.68 19.2 18.7
2019-06-16 09:00:00 21.6 21.6 21.8 0 7246 24.28 23.73 24.79 73.42 19 17.4
2019-06-16 10:00:00 21.7 21.5 22 0 7304 25.89 25.1 26.33 69.33 19.6 19
2019-06-16 11:00:00 22.1 21.9 22.4 0 7304 27.67 26.68 28.92 61.47 19.3 18.3
2019-06-16 12:00:00 22.6 22.4 23 0 7294 29.1 27.87 30.25 54.52 18.7 17.8
2019-06-16 13:00:00 23.1 22.8 23.5 0 7304 29.54 29.06 30.64 53.77 19 17.6
2019-06-16 14:00:00 23.7 23.4 24 0 7304 29.91 29.42 31.2 49.24 17.9 16.4
2019-06-16 15:00:00 24.2 23.9 24.5 0 7294 30.6 30.01 31.36 42.81 16.2 13.7
2019-06-16 16:00:00 24.6 24.4 24.8 0 7284 30.72 29.82 32.26 39.27 15 13.8
2019-06-16 17:00:00 24.7 24.6 24.8 0 7294 27.89 26.69 29.63 51.97 16.8 15.7
2019-06-16 18:00:00 24.7 24.7 25 0 7158 27.13 24.77 29.12 53.84 16.7 14.7
2019-06-16 19:00:00 24.7 24.6 24.9 0 6952 23.59 22.77 24.55 64.32 16.1 13.7
2019-06-16 20:00:00 24.5 24.4 24.7 0 6904 22.42 21.87 23.06 75.2 17.6 15.2
2019-06-16 21:00:00 24.3 24.1 24.5 0 6904 20.79 19.49 21.81 76.32 16.2 15.2
2019-06-16 22:00:00 24 23.9 24.3 0 6894 19.14 18.79 19.39 92.13 17.6 17.3
2019-06-16 23:00:00 23.7 23.6 24 0 6884 18.19 17.23 19.06 95.09 17.2 16.8
2019-06-17 00:00:00 23.4 23.3 23.6 0 6864 16.89 16.56 17.36 100 16.8 16.5
2019-06-17 01:00:00 23.1 23 23.3 0 6854 16.45 16.18 16.89 100 16.4 16.1
2019-06-17 02:00:00 22.8 22.7 23 0 6844 15.97 15.85 16.14 100 15.9 15.8
2019-06-17 03:00:00 22.6 22.5 22.8 0 6834 16.06 15.78 16.42 100 16 15.7
2019-06-17 04:00:00 22.4 22.3 22.5 0 6834 15.89 15.62 16.49 100 15.8 15.6
2019-06-17 05:00:00 22.1 21.9 22.3 0 6834 15.97 15.67 16.21 100 15.9 15.6
2019-06-17 06:00:00 21.9 21.8 22.1 0 6894 16.76 15.71 17.84 100 16.7 15.7
2019-06-17 07:00:00 21.7 21.7 21.9 0 6942 19.95 17.69 22.27 93.85 18.8 17.6
2019-06-17 08:00:00 21.7 21.6 21.8 0 7050 22.56 22.08 23.16 78.84 18.5 18.2
2019-06-17 09:00:00 21.7 21.6 21.9 0 7176 23.08 22.52 24.1 77.77 18.8 18.5
2019-06-17 10:00:00 21.8 21.7 22.1 0 7304 23.87 22.62 24.83 75.56 19.1 18.5
2019-06-17 11:00:00 22.2 22.1 22.4 0 7304 25.38 24.99 26.12 70.2 19.3 18.8
2019-06-17 12:00:00 22.5 22.3 22.8 0 7304 27 25.76 27.94 63.17 19.2 18.4
2019-06-17 13:00:00 23 22.8 23.3 0 7294 27.71 26.52 29.39 57.56 18.2 16.4
2019-06-17 14:00:00 23.6 23.4 24 0 7304 28.94 27.38 30.37 51.64 17.6 16
2019-06-17 15:00:00 24 23.8 24.2 0 7294 28.28 27.04 29.18 61.05 19.8 18.5
2019-06-17 16:00:00 24.3 24.1 24.5 0 7080 29 27.21 30.72 52.91 18.1 17.7